sensor_id;sensor_type;location;lat;lon;timestamp;temperature;humidity
6439;DHT22;3252;52.540;13.290;2023-09-07T00:00:07;17.70;99.90
6439;DHT22;3252;52.540;13.290;2023-09-07T00:02:13;17.70;99.90
6439;DHT22;3252;52.540;13.290;2023-09-07T00:04:15;17.70;99.90
6439;DHT22;3252;52.540;13.290;2023-09-07T00:06:17;17.70;99.90
6439;DHT22;3252;52.540;13.290;2023-09-07T00:08:21;17.70;99.90
6439;DHT22;3252;52.540;13.290;2023-09-07T00:10:23;17.50;99.90
6439;DHT22;3252;52.540;13.290;2023-09-07T00:12:27;17.50;99.90
6439;DHT22;3252;52.540;13.290;2023-09-07T00:14:29;17.50;99.90
6439;DHT22;3252;52.540;13.290;2023-09-07T00:16:31;17.40;99.90
6439;DHT22;3252;52.540;13.290;2023-09-07T00:18:35;17.40;99.90
6439;DHT22;3252;52.540;13.290;2023-09-07T00:20:37;17.40;99.90
6439;DHT22;3252;52.540;13.290;2023-09-07T00:22:41;17.30;99.90
6439;DHT22;3252;52.540;13.290;2023-09-07T00:24:44;17.30;99.90
6439;DHT22;3252;52.540;13.290;2023-09-07T00:26:46;17.20;99.90
6439;DHT22;3252;52.540;13.290;2023-09-07T00:28:49;17.20;99.90
6439;DHT22;3252;52.540;13.290;2023-09-07T00:30:52;17.20;99.90
6439;DHT22;3252;52.540;13.290;2023-09-07T00:32:53;17.30;99.90
6439;DHT22;3252;52.540;13.290;2023-09-07T00:34:56;17.20;99.90
6439;DHT22;3252;52.540;13.290;2023-09-07T00:36:57;17.30;99.90
6439;DHT22;3252;52.540;13.290;2023-09-07T00:39:00;17.30;99.90
6439;DHT22;3252;52.540;13.290;2023-09-07T00:41:04;17.20;99.90
6439;DHT22;3252;52.540;13.290;2023-09-07T00:43:07;17.20;99.90
6439;DHT22;3252;52.540;13.290;2023-09-07T00:45:09;17.20;99.90
6439;DHT22;3252;52.540;13.290;2023-09-07T00:47:12;17.20;99.90
6439;DHT22;3252;52.540;13.290;2023-09-07T00:49:14;17.10;99.90
6439;DHT22;3252;52.540;13.290;2023-09-07T00:51:17;17.10;99.90
6439;DHT22;3252;52.540;13.290;2023-09-07T00:53:20;17.10;99.90
6439;DHT22;3252;52.540;13.290;2023-09-07T00:55:24;17.10;99.90
6439;DHT22;3252;52.540;13.290;2023-09-07T00:57:27;17.10;99.90
6439;DHT22;3252;52.540;13.290;2023-09-07T00:59:30;17.00;99.90
6439;DHT22;3252;52.540;13.290;2023-09-07T01:01:34;17.00;99.90
6439;DHT22;3252;52.540;13.290;2023-09-07T01:03:38;17.00;99.90
6439;DHT22;3252;52.540;13.290;2023-09-07T01:05:46;17.00;99.90
6439;DHT22;3252;52.540;13.290;2023-09-07T01:07:54;17.00;99.90
6439;DHT22;3252;52.540;13.290;2023-09-07T01:09:59;17.00;99.90
6439;DHT22;3252;52.540;13.290;2023-09-07T01:12:02;16.90;99.90
6439;DHT22;3252;52.540;13.290;2023-09-07T01:14:06;17.00;99.90
6439;DHT22;3252;52.540;13.290;2023-09-07T01:16:07;16.90;99.90
6439;DHT22;3252;52.540;13.290;2023-09-07T01:18:09;16.90;99.90
6439;DHT22;3252;52.540;13.290;2023-09-07T01:20:13;16.90;99.90
6439;DHT22;3252;52.540;13.290;2023-09-07T01:22:19;16.80;99.90
6439;DHT22;3252;52.540;13.290;2023-09-07T01:24:24;16.80;99.90
6439;DHT22;3252;52.540;13.290;2023-09-07T01:26:27;16.80;99.90
6439;DHT22;3252;52.540;13.290;2023-09-07T01:28:29;16.70;99.90
6439;DHT22;3252;52.540;13.290;2023-09-07T01:30:35;16.70;99.90
6439;DHT22;3252;52.540;13.290;2023-09-07T01:32:37;16.70;99.90
6439;DHT22;3252;52.540;13.290;2023-09-07T01:34:40;16.70;99.90
6439;DHT22;3252;52.540;13.290;2023-09-07T01:36:42;16.70;99.90
6439;DHT22;3252;52.540;13.290;2023-09-07T01:38:45;16.70;99.90
6439;DHT22;3252;52.540;13.290;2023-09-07T01:40:48;16.70;99.90
6439;DHT22;3252;52.540;13.290;2023-09-07T01:42:50;16.70;99.90
6439;DHT22;3252;52.540;13.290;2023-09-07T01:44:52;16.70;99.90
6439;DHT22;3252;52.540;13.290;2023-09-07T01:46:54;16.70;99.90
6439;DHT22;3252;52.540;13.290;2023-09-07T01:48:56;16.70;99.90
6439;DHT22;3252;52.540;13.290;2023-09-07T01:50:59;16.70;99.90
6439;DHT22;3252;52.540;13.290;2023-09-07T01:53:01;16.70;99.90
6439;DHT22;3252;52.540;13.290;2023-09-07T01:55:06;16.70;99.90
6439;DHT22;3252;52.540;13.290;2023-09-07T01:57:08;16.60;99.90
6439;DHT22;3252;52.540;13.290;2023-09-07T01:59:10;16.70;99.90
6439;DHT22;3252;52.540;13.290;2023-09-07T02:01:21;16.60;99.90
6439;DHT22;3252;52.540;13.290;2023-09-07T02:03:23;16.60;99.90
6439;DHT22;3252;52.540;13.290;2023-09-07T02:05:26;16.60;99.90
6439;DHT22;3252;52.540;13.290;2023-09-07T02:07:28;16.60;99.90
6439;DHT22;3252;52.540;13.290;2023-09-07T02:09:30;16.60;99.90
6439;DHT22;3252;52.540;13.290;2023-09-07T02:11:34;16.60;99.90
6439;DHT22;3252;52.540;13.290;2023-09-07T02:13:36;16.60;99.90
6439;DHT22;3252;52.540;13.290;2023-09-07T02:15:39;16.50;99.90
6439;DHT22;3252;52.540;13.290;2023-09-07T02:17:41;16.50;99.90
6439;DHT22;3252;52.540;13.290;2023-09-07T02:19:47;16.50;99.90
6439;DHT22;3252;52.540;13.290;2023-09-07T02:21:51;16.50;99.90
6439;DHT22;3252;52.540;13.290;2023-09-07T02:23:53;16.50;99.90
6439;DHT22;3252;52.540;13.290;2023-09-07T02:25:56;16.50;99.90
6439;DHT22;3252;52.540;13.290;2023-09-07T02:27:59;16.50;99.90
6439;DHT22;3252;52.540;13.290;2023-09-07T02:30:02;16.40;99.90
6439;DHT22;3252;52.540;13.290;2023-09-07T02:32:05;16.40;99.90
6439;DHT22;3252;52.540;13.290;2023-09-07T02:34:08;16.40;99.90
6439;DHT22;3252;52.540;13.290;2023-09-07T02:36:10;16.40;99.90
6439;DHT22;3252;52.540;13.290;2023-09-07T02:38:12;16.30;99.90
6439;DHT22;3252;52.540;13.290;2023-09-07T02:40:14;16.30;99.90
6439;DHT22;3252;52.540;13.290;2023-09-07T02:42:17;16.30;99.90
6439;DHT22;3252;52.540;13.290;2023-09-07T02:44:20;16.30;99.90
6439;DHT22;3252;52.540;13.290;2023-09-07T02:46:23;16.30;99.90
6439;DHT22;3252;52.540;13.290;2023-09-07T02:48:25;16.30;99.90
6439;DHT22;3252;52.540;13.290;2023-09-07T02:50:29;16.30;99.90
6439;DHT22;3252;52.540;13.290;2023-09-07T02:52:31;16.30;99.90
6439;DHT22;3252;52.540;13.290;2023-09-07T02:54:34;16.30;99.90
6439;DHT22;3252;52.540;13.290;2023-09-07T02:56:35;16.20;99.90
6439;DHT22;3252;52.540;13.290;2023-09-07T02:58:37;16.20;99.90
6439;DHT22;3252;52.540;13.290;2023-09-07T03:00:45;16.20;99.90
6439;DHT22;3252;52.540;13.290;2023-09-07T03:02:50;16.10;99.90
6439;DHT22;3252;52.540;13.290;2023-09-07T03:04:53;16.10;99.90
6439;DHT22;3252;52.540;13.290;2023-09-07T03:07:00;16.10;99.90
6439;DHT22;3252;52.540;13.290;2023-09-07T03:09:03;16.10;99.90
6439;DHT22;3252;52.540;13.290;2023-09-07T03:11:11;16.10;99.90
6439;DHT22;3252;52.540;13.290;2023-09-07T03:13:14;16.10;99.90
6439;DHT22;3252;52.540;13.290;2023-09-07T03:15:17;16.10;99.90
6439;DHT22;3252;52.540;13.290;2023-09-07T03:17:20;16.10;99.90
6439;DHT22;3252;52.540;13.290;2023-09-07T03:19:23;16.10;99.90
6439;DHT22;3252;52.540;13.290;2023-09-07T03:21:25;16.00;99.90
6439;DHT22;3252;52.540;13.290;2023-09-07T03:23:32;16.10;99.90
6439;DHT22;3252;52.540;13.290;2023-09-07T03:25:35;16.00;99.90
6439;DHT22;3252;52.540;13.290;2023-09-07T03:27:37;16.00;99.90
6439;DHT22;3252;52.540;13.290;2023-09-07T03:29:40;16.00;99.90
6439;DHT22;3252;52.540;13.290;2023-09-07T03:31:43;16.00;99.90
6439;DHT22;3252;52.540;13.290;2023-09-07T03:33:47;15.90;99.90
6439;DHT22;3252;52.540;13.290;2023-09-07T03:35:50;15.90;99.90
6439;DHT22;3252;52.540;13.290;2023-09-07T03:37:54;15.90;99.90
6439;DHT22;3252;52.540;13.290;2023-09-07T03:39:56;15.90;99.90
6439;DHT22;3252;52.540;13.290;2023-09-07T03:41:59;15.90;99.90
6439;DHT22;3252;52.540;13.290;2023-09-07T03:44:01;15.90;99.90
6439;DHT22;3252;52.540;13.290;2023-09-07T03:46:04;15.90;99.90
6439;DHT22;3252;52.540;13.290;2023-09-07T03:48:06;15.90;99.90
6439;DHT22;3252;52.540;13.290;2023-09-07T03:50:12;15.90;99.90
6439;DHT22;3252;52.540;13.290;2023-09-07T03:52:15;15.90;99.90
6439;DHT22;3252;52.540;13.290;2023-09-07T03:54:16;15.90;99.90
6439;DHT22;3252;52.540;13.290;2023-09-07T03:56:18;15.80;99.90
6439;DHT22;3252;52.540;13.290;2023-09-07T03:58:21;15.80;99.90
6439;DHT22;3252;52.540;13.290;2023-09-07T04:00:23;15.80;99.90
6439;DHT22;3252;52.540;13.290;2023-09-07T04:02:25;15.80;99.90
6439;DHT22;3252;52.540;13.290;2023-09-07T04:04:28;15.80;99.90
6439;DHT22;3252;52.540;13.290;2023-09-07T04:06:31;15.80;99.90
6439;DHT22;3252;52.540;13.290;2023-09-07T04:08:33;15.70;99.90
6439;DHT22;3252;52.540;13.290;2023-09-07T04:10:37;15.70;99.90
6439;DHT22;3252;52.540;13.290;2023-09-07T04:12:40;15.60;99.90
6439;DHT22;3252;52.540;13.290;2023-09-07T04:14:42;15.60;99.90
6439;DHT22;3252;52.540;13.290;2023-09-07T04:16:45;15.60;99.90
6439;DHT22;3252;52.540;13.290;2023-09-07T04:18:48;15.50;99.90
6439;DHT22;3252;52.540;13.290;2023-09-07T04:20:50;15.50;99.90
6439;DHT22;3252;52.540;13.290;2023-09-07T04:22:53;15.50;99.90
6439;DHT22;3252;52.540;13.290;2023-09-07T04:24:56;15.50;99.90
6439;DHT22;3252;52.540;13.290;2023-09-07T04:26:58;15.50;99.90
6439;DHT22;3252;52.540;13.290;2023-09-07T04:29:02;15.50;99.90
6439;DHT22;3252;52.540;13.290;2023-09-07T04:31:05;15.40;99.90
6439;DHT22;3252;52.540;13.290;2023-09-07T04:33:07;15.40;99.90
6439;DHT22;3252;52.540;13.290;2023-09-07T04:35:12;15.40;99.90
6439;DHT22;3252;52.540;13.290;2023-09-07T04:37:14;15.40;99.90
6439;DHT22;3252;52.540;13.290;2023-09-07T04:39:17;15.40;99.90
6439;DHT22;3252;52.540;13.290;2023-09-07T04:41:20;15.40;99.90
6439;DHT22;3252;52.540;13.290;2023-09-07T04:43:22;15.40;99.90
6439;DHT22;3252;52.540;13.290;2023-09-07T04:45:24;15.40;99.90
6439;DHT22;3252;52.540;13.290;2023-09-07T04:47:27;15.40;99.90
6439;DHT22;3252;52.540;13.290;2023-09-07T04:49:29;15.30;99.90
6439;DHT22;3252;52.540;13.290;2023-09-07T04:51:31;15.30;99.90
6439;DHT22;3252;52.540;13.290;2023-09-07T04:53:35;15.30;99.90
6439;DHT22;3252;52.540;13.290;2023-09-07T04:55:40;15.30;99.90
6439;DHT22;3252;52.540;13.290;2023-09-07T04:57:42;15.30;99.90
6439;DHT22;3252;52.540;13.290;2023-09-07T04:59:46;15.30;99.90
6439;DHT22;3252;52.540;13.290;2023-09-07T05:01:48;15.40;99.90
6439;DHT22;3252;52.540;13.290;2023-09-07T05:03:50;15.40;99.90
6439;DHT22;3252;52.540;13.290;2023-09-07T05:05:53;15.40;99.90
6439;DHT22;3252;52.540;13.290;2023-09-07T05:07:55;15.40;99.90
6439;DHT22;3252;52.540;13.290;2023-09-07T05:09:57;15.40;99.90
6439;DHT22;3252;52.540;13.290;2023-09-07T05:12:01;15.40;99.90
6439;DHT22;3252;52.540;13.290;2023-09-07T05:14:03;15.40;99.90
6439;DHT22;3252;52.540;13.290;2023-09-07T05:16:06;15.40;99.90
6439;DHT22;3252;52.540;13.290;2023-09-07T05:18:11;15.50;99.90
6439;DHT22;3252;52.540;13.290;2023-09-07T05:20:12;15.40;99.90
6439;DHT22;3252;52.540;13.290;2023-09-07T05:22:15;15.50;99.90
6439;DHT22;3252;52.540;13.290;2023-09-07T05:24:19;15.40;99.90
6439;DHT22;3252;52.540;13.290;2023-09-07T05:26:21;15.50;99.90
6439;DHT22;3252;52.540;13.290;2023-09-07T05:28:27;15.50;99.90
6439;DHT22;3252;52.540;13.290;2023-09-07T05:30:30;15.50;99.90
6439;DHT22;3252;52.540;13.290;2023-09-07T05:32:34;15.50;99.90
6439;DHT22;3252;52.540;13.290;2023-09-07T05:34:35;15.60;99.90
6439;DHT22;3252;52.540;13.290;2023-09-07T05:36:38;15.70;99.90
6439;DHT22;3252;52.540;13.290;2023-09-07T05:38:40;15.70;99.90
6439;DHT22;3252;52.540;13.290;2023-09-07T05:40:44;15.70;99.90
6439;DHT22;3252;52.540;13.290;2023-09-07T05:42:48;15.80;99.90
6439;DHT22;3252;52.540;13.290;2023-09-07T05:44:52;15.80;99.90
6439;DHT22;3252;52.540;13.290;2023-09-07T05:46:54;15.90;99.90
6439;DHT22;3252;52.540;13.290;2023-09-07T05:48:56;15.90;99.90
6439;DHT22;3252;52.540;13.290;2023-09-07T05:50:58;16.00;99.90
6439;DHT22;3252;52.540;13.290;2023-09-07T05:52:59;16.00;99.90
6439;DHT22;3252;52.540;13.290;2023-09-07T05:55:02;16.00;99.90
6439;DHT22;3252;52.540;13.290;2023-09-07T05:57:04;16.10;99.90
6439;DHT22;3252;52.540;13.290;2023-09-07T05:59:07;16.20;99.90
6439;DHT22;3252;52.540;13.290;2023-09-07T06:01:10;16.20;99.90
6439;DHT22;3252;52.540;13.290;2023-09-07T06:03:13;16.30;99.90
6439;DHT22;3252;52.540;13.290;2023-09-07T06:05:15;16.30;99.90
6439;DHT22;3252;52.540;13.290;2023-09-07T06:07:17;16.40;99.90
6439;DHT22;3252;52.540;13.290;2023-09-07T06:09:19;16.40;99.90
6439;DHT22;3252;52.540;13.290;2023-09-07T06:11:21;16.50;99.90
6439;DHT22;3252;52.540;13.290;2023-09-07T06:13:23;16.60;99.90
6439;DHT22;3252;52.540;13.290;2023-09-07T06:15:26;16.60;99.90
6439;DHT22;3252;52.540;13.290;2023-09-07T06:17:29;16.70;99.90
6439;DHT22;3252;52.540;13.290;2023-09-07T06:19:32;16.80;99.90
6439;DHT22;3252;52.540;13.290;2023-09-07T06:21:35;16.80;99.90
6439;DHT22;3252;52.540;13.290;2023-09-07T06:23:37;16.90;99.90
6439;DHT22;3252;52.540;13.290;2023-09-07T06:25:39;17.00;99.90
6439;DHT22;3252;52.540;13.290;2023-09-07T06:27:42;17.10;99.90
6439;DHT22;3252;52.540;13.290;2023-09-07T06:29:44;17.10;99.90
6439;DHT22;3252;52.540;13.290;2023-09-07T06:31:48;17.20;99.90
6439;DHT22;3252;52.540;13.290;2023-09-07T06:33:52;17.30;99.90
6439;DHT22;3252;52.540;13.290;2023-09-07T06:35:54;17.30;99.90
6439;DHT22;3252;52.540;13.290;2023-09-07T06:37:58;17.40;99.90
6439;DHT22;3252;52.540;13.290;2023-09-07T06:40:01;17.50;99.90
6439;DHT22;3252;52.540;13.290;2023-09-07T06:42:09;17.50;99.90
6439;DHT22;3252;52.540;13.290;2023-09-07T06:44:24;17.70;99.90
6439;DHT22;3252;52.540;13.290;2023-09-07T06:46:27;17.90;99.90
6439;DHT22;3252;52.540;13.290;2023-09-07T06:48:29;18.00;99.90
6439;DHT22;3252;52.540;13.290;2023-09-07T06:50:34;18.10;99.90
6439;DHT22;3252;52.540;13.290;2023-09-07T06:52:36;18.40;99.90
6439;DHT22;3252;52.540;13.290;2023-09-07T06:54:38;18.60;99.90
6439;DHT22;3252;52.540;13.290;2023-09-07T06:56:41;18.80;99.90
6439;DHT22;3252;52.540;13.290;2023-09-07T06:58:43;19.10;99.90
6439;DHT22;3252;52.540;13.290;2023-09-07T07:00:45;19.30;99.90
6439;DHT22;3252;52.540;13.290;2023-09-07T07:02:48;19.70;99.90
6439;DHT22;3252;52.540;13.290;2023-09-07T07:04:51;20.10;99.90
6439;DHT22;3252;52.540;13.290;2023-09-07T07:06:54;20.30;99.90
6439;DHT22;3252;52.540;13.290;2023-09-07T07:08:56;20.50;99.90
6439;DHT22;3252;52.540;13.290;2023-09-07T07:10:58;20.50;99.90
6439;DHT22;3252;52.540;13.290;2023-09-07T07:13:06;20.60;99.90
6439;DHT22;3252;52.540;13.290;2023-09-07T07:15:09;20.80;99.90
6439;DHT22;3252;52.540;13.290;2023-09-07T07:17:12;20.90;99.90
6439;DHT22;3252;52.540;13.290;2023-09-07T07:19:15;21.10;99.90
6439;DHT22;3252;52.540;13.290;2023-09-07T07:21:17;21.20;99.90
6439;DHT22;3252;52.540;13.290;2023-09-07T07:23:21;21.20;99.90
6439;DHT22;3252;52.540;13.290;2023-09-07T07:25:23;21.20;99.90
6439;DHT22;3252;52.540;13.290;2023-09-07T07:27:25;21.30;99.90
6439;DHT22;3252;52.540;13.290;2023-09-07T07:29:27;21.40;99.90
6439;DHT22;3252;52.540;13.290;2023-09-07T07:31:29;21.40;99.90
6439;DHT22;3252;52.540;13.290;2023-09-07T07:33:31;21.60;99.90
6439;DHT22;3252;52.540;13.290;2023-09-07T07:35:34;21.70;99.90
6439;DHT22;3252;52.540;13.290;2023-09-07T07:37:37;21.80;99.90
6439;DHT22;3252;52.540;13.290;2023-09-07T07:39:41;21.90;99.90
6439;DHT22;3252;52.540;13.290;2023-09-07T07:41:45;21.90;99.90
6439;DHT22;3252;52.540;13.290;2023-09-07T07:43:46;22.00;99.90
6439;DHT22;3252;52.540;13.290;2023-09-07T07:45:49;22.00;99.90
6439;DHT22;3252;52.540;13.290;2023-09-07T07:47:51;22.10;99.90
6439;DHT22;3252;52.540;13.290;2023-09-07T07:49:53;22.10;99.90
6439;DHT22;3252;52.540;13.290;2023-09-07T07:51:55;22.10;99.90
6439;DHT22;3252;52.540;13.290;2023-09-07T07:53:59;22.20;99.90
6439;DHT22;3252;52.540;13.290;2023-09-07T07:56:03;22.20;99.90
6439;DHT22;3252;52.540;13.290;2023-09-07T07:58:06;22.30;99.40
6439;DHT22;3252;52.540;13.290;2023-09-07T08:00:10;22.40;99.90
6439;DHT22;3252;52.540;13.290;2023-09-07T08:02:21;22.40;99.50
6439;DHT22;3252;52.540;13.290;2023-09-07T08:04:24;22.50;99.40
6439;DHT22;3252;52.540;13.290;2023-09-07T08:06:26;22.50;98.40
6439;DHT22;3252;52.540;13.290;2023-09-07T08:08:28;22.60;99.30
6439;DHT22;3252;52.540;13.290;2023-09-07T08:10:33;22.60;99.60
6439;DHT22;3252;52.540;13.290;2023-09-07T08:12:37;22.70;99.50
6439;DHT22;3252;52.540;13.290;2023-09-07T08:14:40;22.90;99.10
6439;DHT22;3252;52.540;13.290;2023-09-07T08:16:43;23.00;97.80
6439;DHT22;3252;52.540;13.290;2023-09-07T08:18:46;23.20;97.10
6439;DHT22;3252;52.540;13.290;2023-09-07T08:20:50;23.20;96.50
6439;DHT22;3252;52.540;13.290;2023-09-07T08:22:52;23.30;96.70
6439;DHT22;3252;52.540;13.290;2023-09-07T08:24:55;23.30;96.70
6439;DHT22;3252;52.540;13.290;2023-09-07T08:26:56;23.70;95.00
6439;DHT22;3252;52.540;13.290;2023-09-07T08:29:05;24.20;93.50
6439;DHT22;3252;52.540;13.290;2023-09-07T08:31:07;24.70;92.00
6439;DHT22;3252;52.540;13.290;2023-09-07T08:33:11;24.80;91.70
6439;DHT22;3252;52.540;13.290;2023-09-07T08:35:14;24.70;91.50
6439;DHT22;3252;52.540;13.290;2023-09-07T08:37:17;24.70;88.90
6439;DHT22;3252;52.540;13.290;2023-09-07T08:39:22;24.60;88.20
6439;DHT22;3252;52.540;13.290;2023-09-07T08:41:24;24.80;87.40
6439;DHT22;3252;52.540;13.290;2023-09-07T08:43:29;25.00;87.30
6439;DHT22;3252;52.540;13.290;2023-09-07T08:45:39;24.90;87.30
6439;DHT22;3252;52.540;13.290;2023-09-07T08:47:44;24.80;88.40
6439;DHT22;3252;52.540;13.290;2023-09-07T08:49:47;24.70;89.20
6439;DHT22;3252;52.540;13.290;2023-09-07T08:51:50;24.60;86.10
6439;DHT22;3252;52.540;13.290;2023-09-07T08:53:53;24.50;86.00
6439;DHT22;3252;52.540;13.290;2023-09-07T08:55:57;24.60;87.90
6439;DHT22;3252;52.540;13.290;2023-09-07T08:58:00;24.60;88.90
6439;DHT22;3252;52.540;13.290;2023-09-07T09:00:05;24.60;85.80
6439;DHT22;3252;52.540;13.290;2023-09-07T09:02:16;24.60;85.30
6439;DHT22;3252;52.540;13.290;2023-09-07T09:04:18;24.60;87.10
6439;DHT22;3252;52.540;13.290;2023-09-07T09:06:22;24.70;84.30
6439;DHT22;3252;52.540;13.290;2023-09-07T09:08:24;24.80;83.00
6439;DHT22;3252;52.540;13.290;2023-09-07T09:10:26;25.00;82.80
6439;DHT22;3252;52.540;13.290;2023-09-07T09:12:28;25.20;79.50
6439;DHT22;3252;52.540;13.290;2023-09-07T09:14:30;25.30;79.20
6439;DHT22;3252;52.540;13.290;2023-09-07T09:16:33;25.60;77.50
6439;DHT22;3252;52.540;13.290;2023-09-07T09:18:36;25.60;77.50
6439;DHT22;3252;52.540;13.290;2023-09-07T09:20:40;25.80;75.40
6439;DHT22;3252;52.540;13.290;2023-09-07T09:22:42;26.20;73.40
6439;DHT22;3252;52.540;13.290;2023-09-07T09:24:44;26.30;70.70
6439;DHT22;3252;52.540;13.290;2023-09-07T09:26:49;26.20;70.50
6439;DHT22;3252;52.540;13.290;2023-09-07T09:28:51;26.00;72.50
6439;DHT22;3252;52.540;13.290;2023-09-07T09:30:54;26.10;84.70
6439;DHT22;3252;52.540;13.290;2023-09-07T09:32:56;26.00;73.80
6439;DHT22;3252;52.540;13.290;2023-09-07T09:35:04;26.00;71.80
6439;DHT22;3252;52.540;13.290;2023-09-07T09:37:13;26.00;72.80
6439;DHT22;3252;52.540;13.290;2023-09-07T09:39:22;26.10;73.20
6439;DHT22;3252;52.540;13.290;2023-09-07T09:41:25;26.00;69.90
6439;DHT22;3252;52.540;13.290;2023-09-07T09:43:28;26.00;68.00
6439;DHT22;3252;52.540;13.290;2023-09-07T09:45:32;26.10;69.20
6439;DHT22;3252;52.540;13.290;2023-09-07T09:47:39;26.70;68.50
6439;DHT22;3252;52.540;13.290;2023-09-07T09:49:41;27.40;63.50
6439;DHT22;3252;52.540;13.290;2023-09-07T09:51:45;27.50;61.00
6439;DHT22;3252;52.540;13.290;2023-09-07T09:53:50;27.80;60.10
6439;DHT22;3252;52.540;13.290;2023-09-07T09:55:53;27.90;58.20
6439;DHT22;3252;52.540;13.290;2023-09-07T09:57:55;27.80;59.00
6439;DHT22;3252;52.540;13.290;2023-09-07T09:59:58;27.60;58.70
6439;DHT22;3252;52.540;13.290;2023-09-07T10:02:13;27.70;57.50
6439;DHT22;3252;52.540;13.290;2023-09-07T10:04:17;27.60;59.10
6439;DHT22;3252;52.540;13.290;2023-09-07T10:06:23;27.60;58.50
6439;DHT22;3252;52.540;13.290;2023-09-07T10:08:29;27.90;58.40
6439;DHT22;3252;52.540;13.290;2023-09-07T10:10:34;28.80;56.50
6439;DHT22;3252;52.540;13.290;2023-09-07T10:12:40;29.40;54.30
6439;DHT22;3252;52.540;13.290;2023-09-07T10:14:43;30.40;53.00
6439;DHT22;3252;52.540;13.290;2023-09-07T10:16:53;31.30;50.90
6439;DHT22;3252;52.540;13.290;2023-09-07T10:19:00;32.60;48.80
6439;DHT22;3252;52.540;13.290;2023-09-07T10:21:04;33.50;46.50
6439;DHT22;3252;52.540;13.290;2023-09-07T10:23:06;32.90;46.50
6439;DHT22;3252;52.540;13.290;2023-09-07T10:25:21;32.30;46.90
6439;DHT22;3252;52.540;13.290;2023-09-07T10:27:24;31.10;47.20
6439;DHT22;3252;52.540;13.290;2023-09-07T10:29:26;30.30;48.50
6439;DHT22;3252;52.540;13.290;2023-09-07T10:31:28;30.00;50.00
6439;DHT22;3252;52.540;13.290;2023-09-07T10:33:31;29.80;50.20
6439;DHT22;3252;52.540;13.290;2023-09-07T10:35:35;29.70;51.40
6439;DHT22;3252;52.540;13.290;2023-09-07T10:37:39;29.70;51.60
6439;DHT22;3252;52.540;13.290;2023-09-07T10:39:43;30.00;51.40
6439;DHT22;3252;52.540;13.290;2023-09-07T10:41:47;30.50;49.10
6439;DHT22;3252;52.540;13.290;2023-09-07T10:43:49;30.20;49.00
6439;DHT22;3252;52.540;13.290;2023-09-07T10:45:53;30.50;49.80
6439;DHT22;3252;52.540;13.290;2023-09-07T10:47:55;30.40;48.40
6439;DHT22;3252;52.540;13.290;2023-09-07T10:49:57;29.90;49.20
6439;DHT22;3252;52.540;13.290;2023-09-07T10:51:59;29.50;49.90
6439;DHT22;3252;52.540;13.290;2023-09-07T10:54:02;29.30;50.60
6439;DHT22;3252;52.540;13.290;2023-09-07T10:56:05;29.20;50.50
6439;DHT22;3252;52.540;13.290;2023-09-07T10:58:10;28.90;50.60
6439;DHT22;3252;52.540;13.290;2023-09-07T11:00:12;29.40;50.90
6439;DHT22;3252;52.540;13.290;2023-09-07T11:02:16;29.40;50.30
6439;DHT22;3252;52.540;13.290;2023-09-07T11:04:18;29.00;51.00
6439;DHT22;3252;52.540;13.290;2023-09-07T11:06:21;28.70;51.80
6439;DHT22;3252;52.540;13.290;2023-09-07T11:08:24;28.60;51.80
6439;DHT22;3252;52.540;13.290;2023-09-07T11:10:26;28.50;51.30
6439;DHT22;3252;52.540;13.290;2023-09-07T11:12:29;28.40;51.40
6439;DHT22;3252;52.540;13.290;2023-09-07T11:14:33;28.40;52.20
6439;DHT22;3252;52.540;13.290;2023-09-07T11:16:35;28.30;52.20
6439;DHT22;3252;52.540;13.290;2023-09-07T11:18:37;28.10;51.60
6439;DHT22;3252;52.540;13.290;2023-09-07T11:20:42;28.10;52.00
6439;DHT22;3252;52.540;13.290;2023-09-07T11:22:44;28.00;51.80
6439;DHT22;3252;52.540;13.290;2023-09-07T11:24:46;28.20;51.80
6439;DHT22;3252;52.540;13.290;2023-09-07T11:26:48;28.20;52.30
6439;DHT22;3252;52.540;13.290;2023-09-07T11:28:51;28.10;52.20
6439;DHT22;3252;52.540;13.290;2023-09-07T11:30:54;29.10;52.00
6439;DHT22;3252;52.540;13.290;2023-09-07T11:33:01;29.80;49.50
6439;DHT22;3252;52.540;13.290;2023-09-07T11:35:03;30.00;47.60
6439;DHT22;3252;52.540;13.290;2023-09-07T11:37:08;29.60;48.30
6439;DHT22;3252;52.540;13.290;2023-09-07T11:39:10;29.70;48.10
6439;DHT22;3252;52.540;13.290;2023-09-07T11:41:14;30.30;47.70
6439;DHT22;3252;52.540;13.290;2023-09-07T11:43:17;30.20;46.70
6439;DHT22;3252;52.540;13.290;2023-09-07T11:45:20;29.80;47.50
6439;DHT22;3252;52.540;13.290;2023-09-07T11:47:24;29.70;48.50
6439;DHT22;3252;52.540;13.290;2023-09-07T11:49:26;29.50;49.00
6439;DHT22;3252;52.540;13.290;2023-09-07T11:51:27;29.20;49.70
6439;DHT22;3252;52.540;13.290;2023-09-07T11:53:30;29.00;50.30
6439;DHT22;3252;52.540;13.290;2023-09-07T11:55:32;28.70;51.00
6439;DHT22;3252;52.540;13.290;2023-09-07T11:57:34;28.40;49.80
6439;DHT22;3252;52.540;13.290;2023-09-07T11:59:36;28.00;50.00
6439;DHT22;3252;52.540;13.290;2023-09-07T12:01:38;28.00;50.50
6439;DHT22;3252;52.540;13.290;2023-09-07T12:03:41;28.10;50.90
6439;DHT22;3252;52.540;13.290;2023-09-07T12:05:43;28.00;51.20
6439;DHT22;3252;52.540;13.290;2023-09-07T12:07:46;28.00;51.90
6439;DHT22;3252;52.540;13.290;2023-09-07T12:09:48;28.10;51.60
6439;DHT22;3252;52.540;13.290;2023-09-07T12:11:49;28.00;50.70
6439;DHT22;3252;52.540;13.290;2023-09-07T12:13:51;28.00;51.20
6439;DHT22;3252;52.540;13.290;2023-09-07T12:15:53;28.00;51.50
6439;DHT22;3252;52.540;13.290;2023-09-07T12:17:56;27.90;51.70
6439;DHT22;3252;52.540;13.290;2023-09-07T12:19:59;27.90;52.10
6439;DHT22;3252;52.540;13.290;2023-09-07T12:22:02;27.90;52.60
6439;DHT22;3252;52.540;13.290;2023-09-07T12:24:04;27.90;51.90
6439;DHT22;3252;52.540;13.290;2023-09-07T12:26:07;27.80;52.40
6439;DHT22;3252;52.540;13.290;2023-09-07T12:28:09;27.80;52.10
6439;DHT22;3252;52.540;13.290;2023-09-07T12:30:11;27.80;52.20
6439;DHT22;3252;52.540;13.290;2023-09-07T12:32:14;27.80;52.50
6439;DHT22;3252;52.540;13.290;2023-09-07T12:34:16;27.80;52.20
6439;DHT22;3252;52.540;13.290;2023-09-07T12:36:18;27.90;52.20
6439;DHT22;3252;52.540;13.290;2023-09-07T12:38:22;27.90;52.50
6439;DHT22;3252;52.540;13.290;2023-09-07T12:40:28;27.90;52.80
6439;DHT22;3252;52.540;13.290;2023-09-07T12:42:30;27.80;52.90
6439;DHT22;3252;52.540;13.290;2023-09-07T12:44:33;27.80;52.90
6439;DHT22;3252;52.540;13.290;2023-09-07T12:46:35;27.80;53.00
6439;DHT22;3252;52.540;13.290;2023-09-07T12:48:36;27.80;53.50
6439;DHT22;3252;52.540;13.290;2023-09-07T12:50:38;27.80;52.60
6439;DHT22;3252;52.540;13.290;2023-09-07T12:52:41;27.80;52.40
6439;DHT22;3252;52.540;13.290;2023-09-07T12:54:43;27.80;52.80
6439;DHT22;3252;52.540;13.290;2023-09-07T12:56:45;27.80;52.80
6439;DHT22;3252;52.540;13.290;2023-09-07T12:58:47;27.80;50.80
6439;DHT22;3252;52.540;13.290;2023-09-07T13:00:50;27.80;50.60
6439;DHT22;3252;52.540;13.290;2023-09-07T13:02:53;27.80;51.50
6439;DHT22;3252;52.540;13.290;2023-09-07T13:04:55;27.80;51.40
6439;DHT22;3252;52.540;13.290;2023-09-07T13:06:57;27.80;51.20
6439;DHT22;3252;52.540;13.290;2023-09-07T13:09:01;27.80;49.90